4XAGC LLBG-LLHA
Flight info
| Callsign | 4XAGC |
|---|---|
| Flight time | N/A |
| Altitude | 5500 |
| Route | NAT J15 ATLIT Q28 GALIM |
| Aircraft | C172/L-SFG/C |
Departure
| Time | 2026-05-04 13:59 |
|---|---|
| Airport | Ben Gurion International Airport (LLBG) |
Arrival
| Time | N/A |
|---|---|
| Airport | Uri Michaeli Haifa International Airport (LLHA) |
| Time | Latitude | Longitude | Altitude | Speed | Heading |
|---|---|---|---|---|---|
| 2026-05-04 13:54 | 32.01957 | 34.89840 | 114 ft | 0 kts | 140° |
| 2026-05-04 13:56 | 32.01865 | 34.89827 | 113 ft | 14 kts | 215° |
| 2026-05-04 13:57 | 32.01835 | 34.89778 | 117 ft | 12 kts | 253° |
| 2026-05-04 13:57 | 32.01833 | 34.89662 | 112 ft | 17 kts | 259° |
| 2026-05-04 13:58 | 32.01620 | 34.88730 | 430 ft | 43 kts | 258° |
| 2026-05-04 13:58 | 32.01414 | 34.88030 | 727 ft | 46 kts | 257° |
| 2026-05-04 13:58 | 32.01335 | 34.87658 | 857 ft | 49 kts | 263° |
| 2026-05-04 13:59 | 32.01303 | 34.87248 | 1015 ft | 50 kts | 257° |
| 2026-05-04 13:59 | 32.01237 | 34.86854 | 1172 ft | 61 kts | 271° |
| 2026-05-04 13:59 | 32.01105 | 34.85761 | 1538 ft | 73 kts | 236° |
| 2026-05-04 14:00 | 32.00546 | 34.85641 | 1727 ft | 82 kts | 187° |
| 2026-05-04 14:00 | 32.00017 | 34.84913 | 2040 ft | 72 kts | 247° |
| 2026-05-04 14:00 | 31.99777 | 34.84390 | 2245 ft | 69 kts | 246° |
| 2026-05-04 14:01 | 31.99472 | 34.83922 | 2352 ft | 79 kts | 245° |
| 2026-05-04 14:01 | 31.99317 | 34.83294 | 2441 ft | 79 kts | 266° |
| 2026-05-04 14:01 | 31.99668 | 34.82056 | 2855 ft | 80 kts | 294° |
| 2026-05-04 14:02 | 31.99892 | 34.81570 | 3165 ft | 71 kts | 292° |
| 2026-05-04 14:02 | 32.00277 | 34.81202 | 3438 ft | 71 kts | 313° |
| 2026-05-04 14:02 | 32.00808 | 34.81042 | 3563 ft | 93 kts | 340° |
| 2026-05-04 14:02 | 32.01502 | 34.81058 | 3691 ft | 102 kts | 356° |
| 2026-05-04 14:03 | 32.02190 | 34.81247 | 3848 ft | 101 kts | 351° |
| 2026-05-04 14:03 | 32.02865 | 34.81204 | 3974 ft | 96 kts | 333° |
| 2026-05-04 14:03 | 32.03655 | 34.81228 | 3887 ft | 124 kts | 355° |
| 2026-05-04 14:03 | 32.04553 | 34.81387 | 3758 ft | 133 kts | 0° |
| 2026-05-04 14:04 | 32.06180 | 34.81889 | 4107 ft | 119 kts | 21° |
| 2026-05-04 14:04 | 32.06607 | 34.82766 | 4278 ft | 124 kts | 78° |
| 2026-05-04 14:04 | 32.06704 | 34.83761 | 4425 ft | 126 kts | 84° |
| 2026-05-04 14:05 | 32.07842 | 34.85104 | 4341 ft | 141 kts | 7° |
| 2026-05-04 14:05 | 32.08791 | 34.85571 | 4164 ft | 151 kts | 18° |
| 2026-05-04 14:05 | 32.09646 | 34.86102 | 4288 ft | 135 kts | 9° |
| 2026-05-04 14:06 | 32.10492 | 34.86456 | 4166 ft | 146 kts | 17° |
| 2026-05-04 14:06 | 32.11396 | 34.87051 | 4044 ft | 146 kts | 22° |
| 2026-05-04 14:06 | 32.12279 | 34.87674 | 3885 ft | 149 kts | 26° |
| 2026-05-04 14:06 | 32.13026 | 34.88441 | 3966 ft | 142 kts | 35° |
| 2026-05-04 14:07 | 32.13810 | 34.89099 | 4034 ft | 130 kts | 24° |
| 2026-05-04 14:07 | 32.14330 | 34.89515 | 3805 ft | 148 kts | 26° |
| 2026-05-04 14:07 | 32.15184 | 34.90179 | 3772 ft | 142 kts | 23° |
| 2026-05-04 14:07 | 32.16009 | 34.90896 | 3629 ft | 153 kts | 28° |
| 2026-05-04 14:08 | 32.16896 | 34.91587 | 3595 ft | 148 kts | 24° |
| 2026-05-04 14:08 | 32.17844 | 34.92168 | 3248 ft | 160 kts | 24° |
| 2026-05-04 14:08 | 32.18769 | 34.92918 | 2942 ft | 164 kts | 43° |
| 2026-05-04 14:08 | 32.19339 | 34.94060 | 2817 ft | 160 kts | 53° |
| 2026-05-04 14:09 | 32.19969 | 34.95946 | 2463 ft | 140 kts | 175° |
| 2026-05-04 14:09 | 32.19197 | 34.95487 | 2069 ft | 123 kts | 241° |
| 2026-05-04 14:10 | 32.19144 | 34.93712 | 1397 ft | 123 kts | 277° |
| 2026-05-04 14:10 | 32.18978 | 34.92796 | 1194 ft | 117 kts | 244° |
| 2026-05-04 14:10 | 32.18784 | 34.91889 | 1025 ft | 109 kts | 265° |
| 2026-05-04 14:10 | 32.18878 | 34.91045 | 1068 ft | 99 kts | 274° |
| 2026-05-04 14:11 | 32.18804 | 34.90282 | 1096 ft | 97 kts | 249° |
| 2026-05-04 14:11 | 32.18422 | 34.88666 | 952 ft | 102 kts | 264° |
| 2026-05-04 14:11 | 32.18378 | 34.87840 | 849 ft | 108 kts | 277° |
| 2026-05-04 14:12 | 32.18330 | 34.86953 | 778 ft | 109 kts | 249° |
| 2026-05-04 14:12 | 32.18151 | 34.86082 | 613 ft | 112 kts | 266° |
| 2026-05-04 14:12 | 32.17630 | 34.84993 | 848 ft | 94 kts | 192° |
| 2026-05-04 14:13 | 32.16966 | 34.85321 | 826 ft | 106 kts | 144° |
| 2026-05-04 14:13 | 32.16579 | 34.86075 | 954 ft | 112 kts | 112° |
| 2026-05-04 14:13 | 32.16736 | 34.86902 | 862 ft | 92 kts | 356° |
| 2026-05-04 14:13 | 32.17124 | 34.86606 | 727 ft | 56 kts | 294° |
| 2026-05-04 14:14 | 32.17263 | 34.86230 | 612 ft | 53 kts | 273° |
| 2026-05-04 14:14 | 32.17518 | 34.85109 | 504 ft | 81 kts | 286° |
| 2026-05-04 14:14 | 32.17558 | 34.85024 | 561 ft | 75 kts | 290° |
| 2026-05-04 14:15 | 32.17904 | 34.83917 | 140 ft | 60 kts | 285° |
| 2026-05-04 14:15 | 32.18113 | 34.83169 | 291 ft | 48 kts | 271° |
| 2026-05-04 14:16 | 32.17839 | 34.82378 | 539 ft | 64 kts | 258° |
| 2026-05-04 14:16 | 32.17862 | 34.81844 | 820 ft | 55 kts | 274° |
| 2026-05-04 14:17 | 32.18081 | 34.80855 | 1305 ft | 58 kts | 290° |
| 2026-05-04 14:17 | 32.18240 | 34.80586 | 1322 ft | 83 kts | 316° |
| 2026-05-04 14:17 | 32.18783 | 34.81559 | 715 ft | 156 kts | 128° |
| 2026-05-04 14:18 | 32.18299 | 34.82601 | 233 ft | 138 kts | 115° |
| 2026-05-04 14:18 | 32.17898 | 34.84260 | 169 ft | 73 kts | 76° |